Time;durP1;ratioP1;P1;durP2;ratioP2;P2;SDS_P1;SDS_P2;PMS_P1;PMS_P2;Temp;Humidity;BMP_temperature;BMP_pressure;BME280_temperature;BME280_humidity;BME280_pressure;Samples;Min_cycle;Max_cycle;Signal;HPM_P1;HPM_P2
2023/04/27 00:01:11;;;;;;;5.55;3.92;;;;;;;;;;4983797;28;20070;-78
2023/04/27 00:03:38;;;;;;;6.57;3.75;;;;;;;;;;4958543;28;20061;-77
2023/04/27 00:06:06;;;;;;;6.15;3.65;;;;;;;;;;4976528;28;20070;-77
2023/04/27 00:08:33;;;;;;;7.43;4.50;;;;;;;;;;4976008;28;20073;-78
2023/04/27 00:11:00;;;;;;;7.25;4.32;;;;;;;;;;4959849;28;20050;-78
2023/04/27 00:13:27;;;;;;;7.20;3.92;;;;;;;;;;4992826;28;20140;-78
2023/04/27 00:15:54;;;;;;;5.80;3.83;;;;;;;;;;4975457;28;20058;-78
2023/04/27 00:18:21;;;;;;;9.30;4.93;;;;;;;;;;4991186;28;20066;-78
2023/04/27 00:20:48;;;;;;;7.80;4.25;;;;;;;;;;4974679;28;20060;-78
2023/04/27 00:23:15;;;;;;;4.85;4.03;;;;;;;;;;4955801;28;20523;-78
2023/04/27 00:25:41;;;;;;;7.57;3.97;;;;;;;;;;4974602;28;20061;-79
2023/04/27 00:28:08;;;;;;;6.95;4.38;;;;;;;;;;4959073;28;20052;-79
2023/04/27 00:30:35;;;;;;;7.07;4.38;;;;;;;;;;4991703;28;20074;-80
2023/04/27 00:33:02;;;;;;;4.82;4.07;;;;;;;;;;4980921;28;20420;-79
2023/04/27 00:35:28;;;;;;;6.07;4.03;;;;;;;;;;4959989;28;20093;-83
2023/04/27 00:37:55;;;;;;;5.85;4.00;;;;;;;;;;4956588;28;20637;-84
2023/04/27 00:40:22;;;;;;;9.90;4.70;;;;;;;;;;4987050;28;20114;-81
2023/04/27 00:42:49;;;;;;;5.15;4.25;;;;;;;;;;4986426;28;20050;-79
2023/04/27 00:45:19;;;;;;;7.40;4.80;;;;;;;;;;4981956;28;20057;-81
2023/04/27 00:47:45;;;;;;;6.40;4.40;;;;;;;;;;4962498;28;20503;-81
2023/04/27 00:50:12;;;;;;;7.13;4.15;;;;;;;;;;4962406;28;20485;-81
2023/04/27 00:52:39;;;;;;;7.60;4.38;;;;;;;;;;4960095;28;20418;-80
2023/04/27 00:55:07;;;;;;;8.55;4.50;;;;;;;;;;4976620;28;20065;-81
2023/04/27 00:57:34;;;;;;;5.45;4.28;;;;;;;;;;4960777;28;20046;-80
2023/04/27 01:00:04;;;;;;;6.13;4.10;;;;;;;;;;4998492;28;20054;-81
2023/04/27 01:02:31;;;;;;;7.20;4.72;;;;;;;;;;5009810;28;20069;-81
2023/04/27 01:04:59;;;;;;;5.45;4.40;;;;;;;;;;4961571;28;20054;-81
2023/04/27 01:07:26;;;;;;;7.55;4.32;;;;;;;;;;4941135;28;20082;-80
2023/04/27 01:09:53;;;;;;;5.93;4.35;;;;;;;;;;4969757;28;20054;-79
2023/04/27 01:12:20;;;;;;;8.07;4.57;;;;;;;;;;4977176;28;20502;-79
2023/04/27 01:14:46;;;;;;;6.63;4.22;;;;;;;;;;4993150;28;20061;-79
2023/04/27 01:17:13;;;;;;;5.57;4.13;;;;;;;;;;4994105;28;20054;-79
2023/04/27 01:19:41;;;;;;;6.95;4.53;;;;;;;;;;4993433;28;20141;-79
2023/04/27 01:22:08;;;;;;;7.47;4.50;;;;;;;;;;4976262;28;20034;-79
2023/04/27 01:24:35;;;;;;;7.35;4.63;;;;;;;;;;4989607;28;20108;-80
2023/04/27 01:27:03;;;;;;;9.13;4.57;;;;;;;;;;4989652;28;20075;-79
2023/04/27 01:29:29;;;;;;;10.23;4.55;;;;;;;;;;4974007;28;20054;-79
2023/04/27 01:31:56;;;;;;;8.85;4.80;;;;;;;;;;4990817;28;20503;-80
2023/04/27 01:34:23;;;;;;;7.07;5.15;;;;;;;;;;4974081;28;20062;-80
2023/04/27 01:36:50;;;;;;;6.53;4.95;;;;;;;;;;4990060;28;20047;-79
2023/04/27 01:39:16;;;;;;;6.60;4.57;;;;;;;;;;4974189;28;20054;-79
2023/04/27 01:41:43;;;;;;;5.97;4.40;;;;;;;;;;4977488;28;20141;-79
2023/04/27 01:44:10;;;;;;;8.63;4.45;;;;;;;;;;4962253;28;20054;-79
2023/04/27 01:46:37;;;;;;;7.97;4.22;;;;;;;;;;4979222;28;20053;-79
2023/04/27 01:49:04;;;;;;;6.72;4.57;;;;;;;;;;4979158;28;20093;-79
2023/04/27 01:51:31;;;;;;;7.30;5.40;;;;;;;;;;4961751;28;20070;-80
2023/04/27 01:53:58;;;;;;;10.88;4.68;;;;;;;;;;4968364;28;20136;-80
2023/04/27 01:56:25;;;;;;;6.80;4.45;;;;;;;;;;4977319;28;20092;-80
2023/04/27 01:58:52;;;;;;;6.93;4.47;;;;;;;;;;4996352;28;20061;-79
2023/04/27 02:01:19;;;;;;;5.82;4.25;;;;;;;;;;4951223;28;20396;-81
2023/04/27 02:03:46;;;;;;;6.63;4.00;;;;;;;;;;4942571;28;20140;-80
2023/04/27 02:06:13;;;;;;;10.27;4.60;;;;;;;;;;4958487;28;20050;-80
2023/04/27 02:08:40;;;;;;;7.20;4.78;;;;;;;;;;4957986;28;20057;-79
2023/04/27 02:11:06;;;;;;;6.15;4.50;;;;;;;;;;4951024;28;20077;-80
2023/04/27 02:13:33;;;;;;;7.57;4.78;;;;;;;;;;4993234;28;20054;-80
2023/04/27 02:16:03;;;;;;;6.55;4.20;;;;;;;;;;4992993;28;20054;-79
2023/04/27 02:18:53;;;;;;;5.95;4.18;;;;;;;;;;4994046;28;20085;-79
2023/04/27 02:21:20;;;;;;;5.60;4.20;;;;;;;;;;4981277;28;20069;-79
2023/04/27 02:23:47;;;;;;;4.70;4.20;;;;;;;;;;4992221;28;20063;-80
2023/04/27 02:26:20;;;;;;;7.40;4.20;;;;;;;;;;4960068;28;20058;-81
2023/04/27 02:28:47;;;;;;;6.15;4.55;;;;;;;;;;4960610;28;20055;-81
2023/04/27 02:31:14;;;;;;;4.78;4.22;;;;;;;;;;4971924;28;20498;-81
2023/04/27 02:33:41;;;;;;;9.75;5.05;;;;;;;;;;4974996;28;20101;-80
2023/04/27 02:36:08;;;;;;;8.13;4.70;;;;;;;;;;4975202;28;20057;-80
2023/04/27 02:38:34;;;;;;;9.60;4.30;;;;;;;;;;4975578;28;20050;-81
2023/04/27 02:41:01;;;;;;;7.38;5.32;;;;;;;;;;4974224;28;20165;-80
2023/04/27 02:43:28;;;;;;;9.73;6.38;;;;;;;;;;4962609;28;20142;-80
2023/04/27 02:45:55;;;;;;;12.50;7.88;;;;;;;;;;4995744;28;20054;-80
2023/04/27 02:48:21;;;;;;;12.20;8.52;;;;;;;;;;4979286;28;20077;-80
2023/04/27 02:50:48;;;;;;;20.05;10.77;;;;;;;;;;4979580;28;20056;-80
2023/04/27 02:53:15;;;;;;;23.77;16.65;;;;;;;;;;4979161;28;20073;-80
2023/04/27 02:55:48;;;;;;;32.33;22.30;;;;;;;;;;4978469;28;20064;-80
2023/04/27 02:58:15;;;;;;;32.85;23.73;;;;;;;;;;4978958;28;20049;-80
2023/04/27 03:00:42;;;;;;;26.98;19.92;;;;;;;;;;4978439;28;20066;-80
2023/04/27 03:03:09;;;;;;;21.25;15.43;;;;;;;;;;4979345;28;20058;-80
2023/04/27 03:05:36;;;;;;;12.98;8.98;;;;;;;;;;4993921;28;20058;-80
2023/04/27 03:08:03;;;;;;;10.90;8.30;;;;;;;;;;4993965;28;20054;-80
2023/04/27 03:10:30;;;;;;;13.95;8.23;;;;;;;;;;4977947;28;20076;-80
2023/04/27 03:12:57;;;;;;;9.63;7.05;;;;;;;;;;4976871;28;20081;-79
2023/04/27 03:15:24;;;;;;;10.45;6.50;;;;;;;;;;4977198;28;20054;-79
2023/04/27 03:17:50;;;;;;;6.18;4.95;;;;;;;;;;4977868;28;20051;-80
2023/04/27 03:20:17;;;;;;;9.82;4.95;;;;;;;;;;4978549;28;20117;-80
2023/04/27 03:22:44;;;;;;;8.95;4.80;;;;;;;;;;4945417;28;20059;-80
2023/04/27 03:25:11;;;;;;;6.57;4.55;;;;;;;;;;4975699;28;20058;-80
2023/04/27 03:27:38;;;;;;;4.68;4.13;;;;;;;;;;4943039;28;20051;-80
2023/04/27 03:30:06;;;;;;;5.57;4.63;;;;;;;;;;4943018;28;20137;-80
2023/04/27 03:32:32;;;;;;;8.05;5.10;;;;;;;;;;4975335;28;20061;-79
2023/04/27 03:34:59;;;;;;;8.95;4.55;;;;;;;;;;4980238;28;20061;-79
2023/04/27 03:37:26;;;;;;;5.78;4.30;;;;;;;;;;4998474;28;20065;-80
2023/04/27 03:39:52;;;;;;;9.20;5.10;;;;;;;;;;4977608;28;20528;-81
2023/04/27 03:42:19;;;;;;;8.05;4.88;;;;;;;;;;4979358;28;20077;-80
2023/04/27 03:44:46;;;;;;;11.32;4.97;;;;;;;;;;4976015;28;20058;-79
2023/04/27 03:47:12;;;;;;;5.50;4.47;;;;;;;;;;4991794;28;20058;-79
2023/04/27 03:49:39;;;;;;;6.63;4.47;;;;;;;;;;4992033;28;20057;-79
2023/04/27 03:52:06;;;;;;;5.00;4.25;;;;;;;;;;4982159;28;20066;-79
2023/04/27 03:54:33;;;;;;;8.38;5.00;;;;;;;;;;4976002;28;20157;-79
2023/04/27 03:57:01;;;;;;;5.63;3.70;;;;;;;;;;4959788;28;20046;-79
2023/04/27 03:59:29;;;;;;;6.80;4.57;;;;;;;;;;4976658;28;20089;-82
2023/04/27 04:01:56;;;;;;;6.20;4.30;;;;;;;;;;4950239;28;20131;-79
2023/04/27 04:04:26;;;;;;;5.95;4.15;;;;;;;;;;4951019;28;20054;-79
2023/04/27 04:06:53;;;;;;;5.40;4.25;;;;;;;;;;4959505;28;20097;-78
2023/04/27 04:09:20;;;;;;;4.78;4.30;;;;;;;;;;4975017;28;20054;-82
2023/04/27 04:11:51;;;;;;;5.95;4.20;;;;;;;;;;4952347;28;20063;-83
2023/04/27 04:14:17;;;;;;;9.25;4.22;;;;;;;;;;4974762;28;20054;-79
2023/04/27 04:16:45;;;;;;;6.47;5.03;;;;;;;;;;4992924;28;20057;-80
2023/04/27 04:19:12;;;;;;;5.50;4.05;;;;;;;;;;4994239;28;20054;-80
2023/04/27 04:21:39;;;;;;;6.88;4.70;;;;;;;;;;4978351;28;20057;-80
2023/04/27 04:24:06;;;;;;;7.95;4.32;;;;;;;;;;4977418;28;20061;-81
2023/04/27 04:26:34;;;;;;;5.07;4.47;;;;;;;;;;4977841;28;20062;-80
2023/04/27 04:29:01;;;;;;;9.85;4.60;;;;;;;;;;4961379;28;20054;-80
2023/04/27 04:31:28;;;;;;;6.72;4.53;;;;;;;;;;4993881;28;20101;-79
2023/04/27 04:33:55;;;;;;;6.13;5.15;;;;;;;;;;4955213;28;20046;-79
2023/04/27 04:36:22;;;;;;;6.85;4.15;;;;;;;;;;4958618;28;20418;-79
2023/04/27 04:38:50;;;;;;;5.55;4.20;;;;;;;;;;5001375;28;20052;-79
2023/04/27 04:41:18;;;;;;;6.05;4.30;;;;;;;;;;4996337;28;20054;-78
2023/04/27 04:43:47;;;;;;;5.82;4.00;;;;;;;;;;4991629;28;20145;-78
2023/04/27 04:46:13;;;;;;;6.45;4.13;;;;;;;;;;4991805;28;20050;-78
2023/04/27 04:48:40;;;;;;;7.30;4.03;;;;;;;;;;4992172;28;20101;-78
2023/04/27 04:51:07;;;;;;;7.63;4.25;;;;;;;;;;4975536;28;20058;-79
2023/04/27 04:53:34;;;;;;;6.00;4.53;;;;;;;;;;4974942;28;20065;-79
2023/04/27 04:56:26;;;;;;;6.75;4.47;;;;;;;;;;4975507;28;20499;-79
2023/04/27 04:58:53;;;;;;;7.78;4.55;;;;;;;;;;4973078;28;20070;-79
2023/04/27 05:01:20;;;;;;;7.07;5.18;;;;;;;;;;4976341;28;20058;-79
2023/04/27 05:03:47;;;;;;;4.88;4.45;;;;;;;;;;4959031;28;20104;-80
2023/04/27 05:06:14;;;;;;;7.78;4.40;;;;;;;;;;4992358;28;20485;-80
2023/04/27 05:08:41;;;;;;;8.23;4.72;;;;;;;;;;4993113;28;20178;-79
2023/04/27 05:11:07;;;;;;;6.07;4.15;;;;;;;;;;4974692;28;20058;-80
2023/04/27 05:13:35;;;;;;;9.30;4.30;;;;;;;;;;4994583;28;20057;-81
2023/04/27 05:16:06;;;;;;;4.80;4.15;;;;;;;;;;4962984;28;20054;-81
2023/04/27 05:18:33;;;;;;;8.95;4.75;;;;;;;;;;4979193;28;20042;-81
2023/04/27 05:21:00;;;;;;;9.10;4.30;;;;;;;;;;4979860;28;20069;-81
2023/04/27 05:23:26;;;;;;;7.38;4.63;;;;;;;;;;4965174;28;20061;-82
2023/04/27 05:25:53;;;;;;;7.88;4.10;;;;;;;;;;4977197;28;20054;-81
2023/04/27 05:28:20;;;;;;;5.95;4.00;;;;;;;;;;4993613;28;20709;-81
2023/04/27 05:30:47;;;;;;;10.18;4.38;;;;;;;;;;4960652;28;20498;-82
2023/04/27 05:33:14;;;;;;;8.32;4.78;;;;;;;;;;4976539;28;20046;-82
2023/04/27 05:35:41;;;;;;;8.63;4.72;;;;;;;;;;4961287;28;20058;-81
2023/04/27 05:38:08;;;;;;;6.68;3.88;;;;;;;;;;4977486;28;20058;-81
2023/04/27 05:40:35;;;;;;;4.95;3.88;;;;;;;;;;4976875;28;20050;-82
2023/04/27 05:43:04;;;;;;;5.90;4.00;;;;;;;;;;4976441;28;20422;-82
2023/04/27 05:45:31;;;;;;;5.78;3.95;;;;;;;;;;4992529;28;20625;-82
2023/04/27 05:47:58;;;;;;;8.32;4.25;;;;;;;;;;4976079;28;20054;-81
2023/04/27 05:50:24;;;;;;;9.38;5.00;;;;;;;;;;4960176;28;20134;-80
2023/04/27 05:52:51;;;;;;;7.00;4.00;;;;;;;;;;4960007;28;20510;-80
2023/04/27 05:55:18;;;;;;;16.88;5.47;;;;;;;;;;4992220;28;20578;-80
2023/04/27 05:57:45;;;;;;;7.65;3.90;;;;;;;;;;4991353;28;20051;-80
2023/04/27 06:00:18;;;;;;;7.30;4.32;;;;;;;;;;4976414;28;20117;-80
2023/04/27 06:02:45;;;;;;;8.75;4.20;;;;;;;;;;4990871;28;20059;-76
2023/04/27 06:05:12;;;;;;;9.18;4.15;;;;;;;;;;4989454;28;20756;-80
2023/04/27 06:07:40;;;;;;;8.77;4.45;;;;;;;;;;4974089;28;20068;-78
2023/04/27 06:10:07;;;;;;;10.48;4.70;;;;;;;;;;4993994;28;20050;-75
2023/04/27 06:12:34;;;;;;;9.00;4.13;;;;;;;;;;4983197;28;20066;-76
2023/04/27 06:15:06;;;;;;;6.90;4.10;;;;;;;;;;4989587;28;20046;-75
2023/04/27 06:17:37;;;;;;;6.60;3.72;;;;;;;;;;4991254;28;20061;-77
2023/04/27 06:20:10;;;;;;;5.70;3.72;;;;;;;;;;4975289;28;20121;-76
2023/04/27 06:22:37;;;;;;;7.70;4.78;;;;;;;;;;4974772;28;20094;-76
2023/04/27 06:25:05;;;;;;;12.10;7.50;;;;;;;;;;4958820;28;20069;-76
2023/04/27 06:27:33;;;;;;;10.15;7.03;;;;;;;;;;4959027;28;20069;-76
2023/04/27 06:30:00;;;;;;;10.45;6.57;;;;;;;;;;4958905;28;20057;-75
2023/04/27 06:32:26;;;;;;;8.13;4.40;;;;;;;;;;4991396;28;20149;-75
2023/04/27 06:34:53;;;;;;;7.53;4.88;;;;;;;;;;4990913;28;20057;-74
2023/04/27 06:37:20;;;;;;;9.32;4.50;;;;;;;;;;4991078;28;20054;-74
2023/04/27 06:39:47;;;;;;;9.85;4.57;;;;;;;;;;4990744;28;20054;-76
2023/04/27 06:42:14;;;;;;;8.10;4.55;;;;;;;;;;4973886;28;20142;-74
2023/04/27 06:44:41;;;;;;;6.88;4.63;;;;;;;;;;4960324;28;20058;-74
2023/04/27 06:47:07;;;;;;;8.05;4.03;;;;;;;;;;4975288;28;20053;-74
2023/04/27 06:49:34;;;;;;;6.85;4.22;;;;;;;;;;4974803;28;20049;-74
2023/04/27 06:52:01;;;;;;;6.90;4.00;;;;;;;;;;4974853;28;20046;-77
2023/04/27 06:54:28;;;;;;;8.85;4.40;;;;;;;;;;4979472;28;20058;-76
2023/04/27 06:56:55;;;;;;;8.30;4.13;;;;;;;;;;4958559;28;20618;-76
2023/04/27 06:59:22;;;;;;;8.18;4.10;;;;;;;;;;4991093;28;20589;-76
2023/04/27 07:01:48;;;;;;;8.00;4.95;;;;;;;;;;4991033;28;20069;-80
2023/04/27 07:04:15;;;;;;;7.22;3.80;;;;;;;;;;4974515;28;20181;-76
2023/04/27 07:06:43;;;;;;;5.18;3.85;;;;;;;;;;4990108;28;20085;-76
2023/04/27 07:09:10;;;;;;;9.32;5.65;;;;;;;;;;4979925;28;20062;-77
2023/04/27 07:11:52;;;;;;;7.90;4.72;;;;;;;;;;4964458;28;20058;-76
2023/04/27 07:14:19;;;;;;;7.05;4.40;;;;;;;;;;4950862;28;20086;-77
2023/04/27 07:16:46;;;;;;;6.07;4.03;;;;;;;;;;4982382;28;20060;-76
2023/04/27 07:19:13;;;;;;;8.85;3.80;;;;;;;;;;4967473;28;20082;-79
2023/04/27 07:21:40;;;;;;;9.30;4.35;;;;;;;;;;4986155;28;20050;-75
2023/04/27 07:24:07;;;;;;;7.38;3.92;;;;;;;;;;4981194;28;20064;-76
2023/04/27 07:26:33;;;;;;;6.30;4.05;;;;;;;;;;4963944;28;20145;-76
2023/04/27 07:29:00;;;;;;;9.13;4.68;;;;;;;;;;4999727;28;20441;-75
2023/04/27 07:31:40;;;;;;;7.53;4.18;;;;;;;;;;4985399;28;20054;-75
2023/04/27 07:34:07;;;;;;;5.65;4.10;;;;;;;;;;4964222;28;20055;-75
2023/04/27 07:36:34;;;;;;;9.63;3.88;;;;;;;;;;4982694;28;20556;-75
2023/04/27 07:39:01;;;;;;;9.93;4.30;;;;;;;;;;4975693;28;20129;-75
2023/04/27 07:41:27;;;;;;;11.40;4.68;;;;;;;;;;4983904;28;20054;-75
2023/04/27 07:43:54;;;;;;;7.60;3.92;;;;;;;;;;4981660;28;20506;-75
2023/04/27 07:46:21;;;;;;;8.70;4.40;;;;;;;;;;4969580;28;20061;-75
2023/04/27 07:48:49;;;;;;;8.93;4.50;;;;;;;;;;4997890;28;20450;-75
2023/04/27 07:51:16;;;;;;;7.85;4.05;;;;;;;;;;4999001;28;20550;-75
2023/04/27 07:53:43;;;;;;;13.55;5.82;;;;;;;;;;4999010;28;20120;-75
2023/04/27 07:56:13;;;;;;;10.32;4.70;;;;;;;;;;4998359;28;20054;-75
2023/04/27 07:58:39;;;;;;;7.85;4.13;;;;;;;;;;4980821;28;20046;-75
2023/04/27 08:01:06;;;;;;;8.27;4.18;;;;;;;;;;5001401;28;20054;-75
2023/04/27 08:03:33;;;;;;;7.35;3.90;;;;;;;;;;4998232;28;20053;-75
2023/04/27 08:06:00;;;;;;;9.02;4.30;;;;;;;;;;5000041;28;20046;-75
2023/04/27 08:08:28;;;;;;;8.63;4.57;;;;;;;;;;4987422;28;20046;-74
2023/04/27 08:10:55;;;;;;;6.95;4.05;;;;;;;;;;4999986;28;20058;-77
2023/04/27 08:13:21;;;;;;;4.88;3.95;;;;;;;;;;4987498;28;20054;-75
2023/04/27 08:15:53;;;;;;;9.98;4.65;;;;;;;;;;4998431;28;20054;-77
2023/04/27 08:18:20;;;;;;;10.48;4.50;;;;;;;;;;4966352;28;20060;-77
2023/04/27 08:20:47;;;;;;;6.93;4.70;;;;;;;;;;4970453;28;20908;-78
2023/04/27 08:23:14;;;;;;;9.55;4.63;;;;;;;;;;4984763;28;20076;-80
2023/04/27 08:25:41;;;;;;;9.55;4.30;;;;;;;;;;4971679;28;20050;-80
2023/04/27 08:28:07;;;;;;;5.85;3.63;;;;;;;;;;4956929;28;20422;-81
2023/04/27 08:30:35;;;;;;;11.25;4.50;;;;;;;;;;4989525;28;20054;-79
2023/04/27 08:33:01;;;;;;;8.48;4.15;;;;;;;;;;4985148;28;20054;-78
2023/04/27 08:35:28;;;;;;;7.38;4.53;;;;;;;;;;4998041;28;20050;-77
2023/04/27 08:37:55;;;;;;;7.10;4.45;;;;;;;;;;4982875;28;20046;-80
2023/04/27 08:40:23;;;;;;;8.85;5.22;;;;;;;;;;5000231;28;20109;-79
2023/04/27 08:42:57;;;;;;;17.70;5.00;;;;;;;;;;4975240;28;20050;-78
2023/04/27 08:45:25;;;;;;;7.78;3.88;;;;;;;;;;5001578;28;20065;-79
2023/04/27 08:47:52;;;;;;;5.88;3.22;;;;;;;;;;4983298;28;20085;-79
2023/04/27 08:50:23;;;;;;;10.20;3.70;;;;;;;;;;4981582;28;20050;-81
2023/04/27 08:52:50;;;;;;;4.97;3.88;;;;;;;;;;4983207;28;20054;-79
2023/04/27 08:55:17;;;;;;;6.45;3.90;;;;;;;;;;4962991;28;20058;-80
2023/04/27 08:57:57;;;;;;;5.75;3.35;;;;;;;;;;4981296;28;20053;-79
2023/04/27 09:00:25;;;;;;;3.95;3.45;;;;;;;;;;4983156;28;20449;-78
2023/04/27 09:02:52;;;;;;;6.20;2.95;;;;;;;;;;4982433;28;20058;-78
2023/04/27 09:05:20;;;;;;;7.45;3.53;;;;;;;;;;4966911;28;20062;-79
2023/04/27 09:07:58;;;;;;;6.05;2.97;;;;;;;;;;4968640;28;20050;-81
2023/04/27 09:10:25;;;;;;;3.33;2.28;;;;;;;;;;4974082;28;20072;-80
2023/04/27 09:12:56;;;;;;;6.25;3.05;;;;;;;;;;4963851;28;20418;-80
2023/04/27 09:15:22;;;;;;;4.32;2.50;;;;;;;;;;4982657;28;20046;-78
2023/04/27 09:17:56;;;;;;;4.78;3.00;;;;;;;;;;4968977;28;20069;-77
2023/04/27 09:20:25;;;;;;;4.55;2.78;;;;;;;;;;4965292;28;20054;-79
2023/04/27 09:22:54;;;;;;;3.90;2.75;;;;;;;;;;4966862;28;20078;-79
2023/04/27 09:25:22;;;;;;;5.65;3.72;;;;;;;;;;4977035;28;20068;-80
2023/04/27 09:27:49;;;;;;;4.45;2.70;;;;;;;;;;4965110;28;20080;-80
2023/04/27 09:30:17;;;;;;;5.80;2.88;;;;;;;;;;4964953;28;20161;-81
2023/04/27 09:33:02;;;;;;;6.18;3.17;;;;;;;;;;4970446;28;20121;-80
2023/04/27 09:35:30;;;;;;;4.70;2.45;;;;;;;;;;4967118;28;20062;-80
2023/04/27 09:37:58;;;;;;;6.75;3.55;;;;;;;;;;4980202;28;20418;-83
2023/04/27 09:40:28;;;;;;;8.38;3.25;;;;;;;;;;4971612;28;20061;-81
2023/04/27 09:42:57;;;;;;;4.07;2.60;;;;;;;;;;4965667;28;20061;-80
2023/04/27 09:45:25;;;;;;;5.40;2.70;;;;;;;;;;5002478;28;20064;-80
2023/04/27 09:47:52;;;;;;;4.80;1.95;;;;;;;;;;4968350;28;20062;-82
2023/04/27 09:50:23;;;;;;;8.32;2.95;;;;;;;;;;4965764;28;20502;-81
2023/04/27 09:52:50;;;;;;;5.05;2.92;;;;;;;;;;4973206;28;20077;-80
2023/04/27 09:55:33;;;;;;;6.25;3.08;;;;;;;;;;4995340;28;20463;-79
2023/04/27 09:58:29;;;;;;;5.88;3.05;;;;;;;;;;4969090;28;20053;-81
2023/04/27 10:01:05;;;;;;;6.10;2.88;;;;;;;;;;4987375;28;20149;-79
2023/04/27 10:04:21;;;;;;;7.45;2.75;;;;;;;;;;4972102;28;20061;-79
2023/04/27 10:07:02;;;;;;;8.75;3.03;;;;;;;;;;4963787;28;20088;-78
2023/04/27 10:09:36;;;;;;;4.97;2.85;;;;;;;;;;4984654;28;20050;-79
2023/04/27 10:12:18;;;;;;;5.50;3.78;;;;;;;;;;4958112;28;20510;-77
2023/04/27 10:14:56;;;;;;;8.50;3.72;;;;;;;;;;4977583;28;20688;-76
2023/04/27 10:17:31;;;;;;;5.43;4.75;;;;;;;;;;4964519;28;20051;-78
2023/04/27 10:20:02;;;;;;;6.63;3.63;;;;;;;;;;4981741;28;20104;-76
2023/04/27 10:22:42;;;;;;;7.63;3.33;;;;;;;;;;4970790;28;20065;-76
2023/04/27 10:25:24;;;;;;;6.28;3.38;;;;;;;;;;4981151;28;20057;-76
2023/04/27 10:27:57;;;;;;;7.35;3.55;;;;;;;;;;4980512;28;20046;-76
2023/04/27 10:30:25;;;;;;;;;;;;;;;;;;4985647;28;20482;-76
2023/04/27 10:32:55;;;;;;;4.53;3.15;;;;;;;;;;4984777;28;19972;-76
2023/04/27 10:35:40;;;;;;;5.88;3.10;;;;;;;;;;4983759;28;20057;-76
2023/04/27 10:38:19;;;;;;;7.07;3.53;;;;;;;;;;4978784;28;20062;-77
2023/04/27 10:41:06;;;;;;;4.45;3.50;;;;;;;;;;4986827;28;20056;-76
2023/04/27 10:43:34;;;;;;;4.85;3.05;;;;;;;;;;4966554;28;20053;-76
2023/04/27 10:46:11;;;;;;;4.15;2.70;;;;;;;;;;4966053;28;20050;-77
2023/04/27 10:48:39;;;;;;;8.23;3.70;;;;;;;;;;4980502;28;20101;-78
2023/04/27 10:51:07;;;;;;;10.48;4.38;;;;;;;;;;4978007;28;20053;-77
2023/04/27 10:53:37;;;;;;;5.45;3.38;;;;;;;;;;4984821;28;20125;-77
2023/04/27 10:56:07;;;;;;;5.80;3.20;;;;;;;;;;4948135;28;20144;-76
2023/04/27 10:58:35;;;;;;;4.95;3.60;;;;;;;;;;4954632;28;20046;-78
2023/04/27 11:01:23;;;;;;;5.38;3.10;;;;;;;;;;4956369;28;20061;-76
2023/04/27 11:03:55;;;;;;;5.43;3.25;;;;;;;;;;4975585;28;20058;-76
2023/04/27 11:06:23;;;;;;;5.47;3.28;;;;;;;;;;4968797;28;20100;-77
2023/04/27 11:08:50;;;;;;;6.63;3.38;;;;;;;;;;4986785;28;20050;-76
2023/04/27 11:11:17;;;;;;;10.02;3.47;;;;;;;;;;4987658;28;20545;-74
2023/04/27 11:13:47;;;;;;;5.68;3.60;;;;;;;;;;4968982;28;20065;-74
2023/04/27 11:16:18;;;;;;;5.38;4.00;;;;;;;;;;4969772;28;20481;-75
2023/04/27 11:18:46;;;;;;;7.15;3.97;;;;;;;;;;4981349;28;20749;-74
2023/04/27 11:21:15;;;;;;;9.63;4.15;;;;;;;;;;4988179;28;20050;-75
2023/04/27 11:23:43;;;;;;;6.25;4.15;;;;;;;;;;4970332;28;20105;-76
2023/04/27 11:26:15;;;;;;;4.43;3.42;;;;;;;;;;4983524;28;20423;-76
2023/04/27 11:28:43;;;;;;;5.78;4.10;;;;;;;;;;4968516;28;20050;-75
2023/04/27 11:31:11;;;;;;;5.38;3.88;;;;;;;;;;4978349;28;20396;-75
2023/04/27 11:33:39;;;;;;;6.13;3.70;;;;;;;;;;4964973;28;20054;-75
2023/04/27 11:36:16;;;;;;;6.22;3.45;;;;;;;;;;4982885;28;20058;-77
2023/04/27 11:38:43;;;;;;;7.07;4.28;;;;;;;;;;4967369;28;20058;-75
2023/04/27 11:41:10;;;;;;;5.97;4.45;;;;;;;;;;4981317;28;20080;-75
2023/04/27 11:43:41;;;;;;;8.75;4.10;;;;;;;;;;4984319;28;20058;-74
2023/04/27 11:46:11;;;;;;;7.90;3.92;;;;;;;;;;4983901;28;20058;-74
2023/04/27 11:48:38;;;;;;;6.20;4.43;;;;;;;;;;4979657;28;20056;-74
2023/04/27 11:51:09;;;;;;;8.43;4.45;;;;;;;;;;4965001;28;20053;-74
2023/04/27 11:53:41;;;;;;;6.40;4.30;;;;;;;;;;4964578;28;20502;-73
2023/04/27 11:56:09;;;;;;;10.93;4.07;;;;;;;;;;4980503;28;20050;-73
2023/04/27 11:58:38;;;;;;;6.50;3.45;;;;;;;;;;4981214;28;20132;-74
2023/04/27 12:01:06;;;;;;;7.53;4.13;;;;;;;;;;4974905;28;20046;-75
2023/04/27 12:03:33;;;;;;;5.55;4.13;;;;;;;;;;4941796;28;20145;-76
2023/04/27 12:06:00;;;;;;;5.45;3.90;;;;;;;;;;4974746;28;20058;-75
2023/04/27 12:08:30;;;;;;;6.63;4.15;;;;;;;;;;4959774;28;20104;-77
2023/04/27 12:10:57;;;;;;;4.85;3.60;;;;;;;;;;4985457;28;20046;-73
2023/04/27 12:13:24;;;;;;;6.68;4.13;;;;;;;;;;4981852;28;20100;-76
2023/04/27 12:15:51;;;;;;;7.22;3.53;;;;;;;;;;4983228;28;20058;-76
2023/04/27 12:18:18;;;;;;;7.93;4.15;;;;;;;;;;4979314;28;20096;-75
2023/04/27 12:20:44;;;;;;;6.13;4.50;;;;;;;;;;4964467;28;20418;-76
2023/04/27 12:23:11;;;;;;;7.60;4.38;;;;;;;;;;4942550;28;20518;-75
2023/04/27 12:25:39;;;;;;;4.95;4.20;;;;;;;;;;4958970;28;20125;-76
2023/04/27 12:28:07;;;;;;;7.50;4.10;;;;;;;;;;4992250;28;20078;-76
2023/04/27 12:30:34;;;;;;;8.98;4.35;;;;;;;;;;4979015;28;20046;-76
2023/04/27 12:33:09;;;;;;;5.63;3.75;;;;;;;;;;5160375;27;20388;-73
2023/04/27 12:35:36;;;;;;;4.50;3.20;;;;;;;;;;5092315;28;20051;-75
2023/04/27 12:38:03;;;;;;;7.07;4.00;;;;;;;;;;5107411;28;20513;-75
2023/04/27 12:40:30;;;;;;;6.30;3.80;;;;;;;;;;5106609;28;20184;-75
2023/04/27 12:42:57;;;;;;;4.00;3.50;;;;;;;;;;5106228;28;20058;-75
2023/04/27 12:45:26;;;;;;;6.88;4.10;;;;;;;;;;5106521;28;20114;-76
2023/04/27 12:47:53;;;;;;;7.25;3.80;;;;;;;;;;5105945;28;20105;-76
2023/04/27 12:50:30;;;;;;;7.07;4.05;;;;;;;;;;5107004;28;20048;-75
2023/04/27 12:52:58;;;;;;;5.97;3.30;;;;;;;;;;5089508;28;20060;-75
2023/04/27 12:55:25;;;;;;;5.72;3.67;;;;;;;;;;5106241;28;20062;-75
2023/04/27 12:58:00;;;;;;;6.03;3.00;;;;;;;;;;5106333;28;20060;-75
2023/04/27 13:00:28;;;;;;;6.40;3.80;;;;;;;;;;5088980;28;20092;-77
2023/04/27 13:02:55;;;;;;;8.10;3.97;;;;;;;;;;5105765;28;20494;-75
2023/04/27 13:05:23;;;;;;;5.38;3.55;;;;;;;;;;5089054;28;20097;-76
2023/04/27 13:07:49;;;;;;;9.57;4.32;;;;;;;;;;5105693;28;20427;-75
2023/04/27 13:10:16;;;;;;;6.28;4.07;;;;;;;;;;5088428;28;20056;-75
2023/04/27 13:12:43;;;;;;;5.03;3.30;;;;;;;;;;5088533;28;20051;-76
2023/04/27 13:15:10;;;;;;;5.13;3.80;;;;;;;;;;5106039;28;20138;-76
2023/04/27 13:17:37;;;;;;;5.70;3.65;;;;;;;;;;5072198;28;20142;-76
2023/04/27 13:20:06;;;;;;;6.30;4.30;;;;;;;;;;5105979;28;20059;-76
2023/04/27 13:22:32;;;;;;;7.07;3.70;;;;;;;;;;5089210;28;20118;-76
2023/04/27 13:24:59;;;;;;;6.78;3.92;;;;;;;;;;5105718;28;20095;-76
2023/04/27 13:27:27;;;;;;;8.00;4.10;;;;;;;;;;5107122;28;20132;-76
2023/04/27 13:29:54;;;;;;;5.18;4.00;;;;;;;;;;5105025;28;20075;-76
2023/04/27 13:32:21;;;;;;;5.05;3.35;;;;;;;;;;5104789;28;20101;-76
2023/04/27 13:34:48;;;;;;;7.07;3.20;;;;;;;;;;5088442;28;20056;-76
2023/04/27 13:37:17;;;;;;;8.70;3.92;;;;;;;;;;5105168;28;20051;-76
2023/04/27 13:39:44;;;;;;;5.25;3.35;;;;;;;;;;5104868;28;20539;-77
2023/04/27 13:42:11;;;;;;;6.07;3.97;;;;;;;;;;5105044;28;20105;-77
2023/04/27 13:44:38;;;;;;;8.30;3.60;;;;;;;;;;5074227;28;20054;-76
2023/04/27 13:47:05;;;;;;;7.90;4.03;;;;;;;;;;5091426;28;20055;-74
2023/04/27 13:49:32;;;;;;;6.57;3.60;;;;;;;;;;5092652;28;20109;-75
2023/04/27 13:51:59;;;;;;;5.05;3.60;;;;;;;;;;5074700;28;20048;-76
2023/04/27 13:54:26;;;;;;;7.35;3.75;;;;;;;;;;5074818;28;20055;-80
2023/04/27 13:56:53;;;;;;;6.10;3.53;;;;;;;;;;5089616;28;20136;-77
2023/04/27 13:59:20;;;;;;;5.15;3.38;;;;;;;;;;5112638;28;20055;-79
2023/04/27 14:01:47;;;;;;;6.65;3.13;;;;;;;;;;5080632;28;20054;-77
2023/04/27 14:04:14;;;;;;;4.68;3.33;;;;;;;;;;5059308;28;20055;-76
2023/04/27 14:06:41;;;;;;;5.00;3.38;;;;;;;;;;5092762;28;20059;-79
2023/04/27 14:09:08;;;;;;;7.50;3.80;;;;;;;;;;5057625;28;20496;-78
2023/04/27 14:11:34;;;;;;;6.30;3.60;;;;;;;;;;5091334;28;20062;-78
2023/04/27 14:14:18;;;;;;;6.20;3.45;;;;;;;;;;5063138;28;20401;-79
2023/04/27 14:16:45;;;;;;;6.30;3.63;;;;;;;;;;5091284;28;20052;-75
2023/04/27 14:19:14;;;;;;;6.70;3.92;;;;;;;;;;5092110;28;20504;-82
2023/04/27 14:21:41;;;;;;;5.95;3.10;;;;;;;;;;5091655;28;20087;-80
2023/04/27 14:24:08;;;;;;;4.72;3.15;;;;;;;;;;5091263;28;20416;-78
2023/04/27 14:26:35;;;;;;;6.90;3.38;;;;;;;;;;5091938;28;20091;-77
2023/04/27 14:29:02;;;;;;;5.85;3.13;;;;;;;;;;5093635;28;20051;-83
2023/04/27 14:31:29;;;;;;;5.47;3.25;;;;;;;;;;5058878;28;20108;-79
2023/04/27 14:33:56;;;;;;;6.65;2.88;;;;;;;;;;5075894;28;20084;-82
2023/04/27 14:36:23;;;;;;;5.05;2.90;;;;;;;;;;5057175;28;20416;-80
2023/04/27 14:38:50;;;;;;;7.63;3.22;;;;;;;;;;5055676;28;20066;-79
2023/04/27 14:41:16;;;;;;;4.47;2.88;;;;;;;;;;5089034;28;20064;-81
2023/04/27 14:43:45;;;;;;;5.25;2.95;;;;;;;;;;5092397;28;20517;-80
2023/04/27 14:46:12;;;;;;;5.50;3.15;;;;;;;;;;5076619;28;20056;-81
2023/04/27 14:48:46;;;;;;;5.60;3.33;;;;;;;;;;5061895;28;20131;-79
2023/04/27 14:51:13;;;;;;;6.32;3.13;;;;;;;;;;5075490;28;20184;-81